sim
Sign-in with your pilot id or email,
or register
Callsign
Passwort

Schedule Details

Flight Number: RYR4010 (3)
Departure: Krakow John Paul II International Airport (EPKK) at 19:00
Arrival: Gothenburg Landvetter Airport (ESGG) at 20:55
Route: Ryanair Passenger Schedule. Enter filed route here before submitting Pirep.

Weather Information
Getting current METAR information for EPKK 200200Z VRB01KT 6000 NSC 03/02 Q1025
Getting current METAR information for ESGG 200150Z 14009KT 9999 FEW024 BKN044 04/02 Q1015

Schedule Frequency

Route Map